Time;durP1;ratioP1;P1;durP2;ratioP2;P2;SDS_P1;SDS_P2;PMS_P1;PMS_P2;Temp;Humidity;BMP_temperature;BMP_pressure;BME280_temperature;BME280_humidity;BME280_pressure;Samples;Min_cycle;Max_cycle;Signal;HPM_P1;HPM_P2
2023/08/07 00:01:07;;;;;;;;;;;;;;;;;;4973109;28;19929;-77
2023/08/07 00:03:34;;;;;;;;;;;;;;;;;;4972026;28;19928;-77
2023/08/07 00:06:00;;;;;;;;;;;;;;;;;;4967315;28;20360;-77
2023/08/07 00:08:26;;;;;;;;;;;;;;;;;;4964156;28;19922;-77
2023/08/07 00:10:52;;;;;;;;;;;;;;;;;;4944302;29;19922;-77
2023/08/07 00:13:18;;;;;;;;;;;;;;;;;;4951767;29;19969;-78
2023/08/07 00:15:44;;;;;;;;;;;;;;;;;;4953327;29;19926;-77
2023/08/07 00:18:10;;;;;;;;;;;;;;;;;;4969532;28;19928;-77
2023/08/07 00:20:36;;;;;;;;;;;;;;;;;;4951062;29;20040;-77
2023/08/07 00:23:02;;;;;;;;;;;;;;;;;;4952903;29;19929;-77
2023/08/07 00:25:28;;;;;;;;;;;;;;;;;;4952890;29;19992;-77
2023/08/07 00:27:54;;;;;;;;;;;;;;;;;;4960213;28;19965;-77
2023/08/07 00:30:20;;;;;;;;;;;;;;;;;;4971856;28;20269;-78
2023/08/07 00:32:46;;;;;;;;;;;;;;;;;;4971980;28;19922;-77
2023/08/07 00:35:12;;;;;;;;;;;;;;;;;;4956699;28;19952;-77
2023/08/07 00:37:38;;;;;;;;;;;;;;;;;;4958812;28;19974;-77
2023/08/07 00:40:04;;;;;;;;;;;;;;;;;;4962490;28;19922;-77
2023/08/07 00:42:30;;;;;;;;;;;;;;;;;;4957986;29;20008;-77
2023/08/07 00:44:56;;;;;;;;;;;;;;;;;;4957723;29;20375;-77
2023/08/07 00:47:22;;;;;;;;;;;;;;;;;;4955439;29;20387;-78
2023/08/07 00:49:48;;;;;;;;;;;;;;;;;;4961842;28;20031;-77
2023/08/07 00:52:14;;;;;;;;;;;;;;;;;;4978820;28;19922;-77
2023/08/07 00:54:40;;;;;;;;;;;;;;;;;;4960323;28;19973;-78
2023/08/07 00:57:05;;;;;;;;;;;;;;;;;;4976538;28;20016;-77
2023/08/07 00:59:31;;;;;;;;;;;;;;;;;;4971126;28;19969;-77
2023/08/07 01:01:57;;;;;;;;;;;;;;;;;;4962689;28;19922;-78
2023/08/07 01:04:23;;;;;;;;;;;;;;;;;;4978300;28;20025;-79
2023/08/07 01:06:49;;;;;;;;;;;;;;;;;;4955896;28;19922;-77
2023/08/07 01:09:15;;;;;;;;;;;;;;;;;;4978444;28;20385;-77
2023/08/07 01:11:41;;;;;;;;;;;;;;;;;;4975419;28;19993;-77
2023/08/07 01:14:07;;;;;;;;;;;;;;;;;;4977738;28;19926;-76
2023/08/07 01:16:33;;;;;;;;;;;;;;;;;;4961144;28;20016;-77
2023/08/07 01:18:59;;;;;;;;;;;;;;;;;;4978210;28;19926;-77
2023/08/07 01:21:25;;;;;;;;;;;;;;;;;;4967395;28;19977;-77
2023/08/07 01:23:51;;;;;;;;;;;;;;;;;;4957889;28;20013;-77
2023/08/07 01:26:18;;;;;;;;;;;;;;;;;;4953938;28;19929;-77
2023/08/07 01:28:44;;;;;;;;;;;;;;;;;;4976343;28;19926;-77
2023/08/07 01:31:10;;;;;;;;;;;;;;;;;;4978557;28;19922;-78
2023/08/07 01:33:36;;;;;;;;;;;;;;;;;;4974748;28;19922;-76
2023/08/07 01:36:03;;;;;;;;;;;;;;;;;;4956545;28;19929;-77
2023/08/07 01:38:29;;;;;;;;;;;;;;;;;;4958565;29;20292;-79
2023/08/07 01:40:55;;;;;;;;;;;;;;;;;;4969908;28;19932;-77
2023/08/07 01:43:21;;;;;;;;;;;;;;;;;;4960564;28;19928;-77
2023/08/07 01:45:47;;;;;;;;;;;;;;;;;;4961790;28;19922;-77
2023/08/07 01:48:13;;;;;;;;;;;;;;;;;;4974220;28;19969;-77
2023/08/07 01:50:39;;;;;;;;;;;;;;;;;;4974880;28;20381;-77
2023/08/07 01:53:05;;;;;;;;;;;;;;;;;;4946331;29;19930;-77
2023/08/07 01:55:31;;;;;;;;;;;;;;;;;;4955564;29;19956;-79
2023/08/07 01:57:57;;;;;;;;;;;;;;;;;;4967592;28;19922;-77
2023/08/07 02:00:23;;;;;;;;;;;;;;;;;;4959072;28;19922;-76
2023/08/07 02:02:49;;;;;;;;;;;;;;;;;;4954971;28;20411;-77
2023/08/07 02:05:15;;;;;;;;;;;;;;;;;;4955855;29;20017;-77
2023/08/07 02:07:40;;;;;;;;;;;;;;;;;;4973588;28;19992;-77
2023/08/07 02:10:06;;;;;;;;;;;;;;;;;;4965429;28;19969;-77
2023/08/07 02:12:33;;;;;;;;;;;;;;;;;;4954610;29;19930;-78
2023/08/07 02:14:59;;;;;;;;;;;;;;;;;;4967762;28;20016;-77
2023/08/07 02:17:25;;;;;;;;;;;;;;;;;;4974797;28;20025;-76
2023/08/07 02:19:51;;;;;;;;;;;;;;;;;;4974178;28;20004;-76
2023/08/07 02:22:17;;;;;;;;;;;;;;;;;;4972994;28;19922;-77
2023/08/07 02:24:42;;;;;;;;;;;;;;;;;;4962466;28;19929;-77
2023/08/07 02:27:08;;;;;;;;;;;;;;;;;;4955028;29;20381;-77
2023/08/07 02:29:34;;;;;;;;;;;;;;;;;;4951178;28;19925;-78
2023/08/07 02:32:00;;;;;;;;;;;;;;;;;;4974545;28;19933;-77
2023/08/07 02:34:26;;;;;;;;;;;;;;;;;;4974512;28;19922;-77
2023/08/07 02:36:52;;;;;;;;;;;;;;;;;;4943252;29;19922;-76
2023/08/07 02:39:18;;;;;;;;;;;;;;;;;;4954694;29;19929;-77
2023/08/07 02:41:44;;;;;;;;;;;;;;;;;;4954270;29;20419;-77
2023/08/07 02:44:10;;;;;;;;;;;;;;;;;;4937900;29;20427;-77
2023/08/07 02:46:36;;;;;;;;;;;;;;;;;;4954529;29;20327;-79
2023/08/07 02:49:02;;;;;;;;;;;;;;;;;;4969120;28;19922;-77
2023/08/07 02:51:28;;;;;;;;;;;;;;;;;;4972166;28;20357;-77
2023/08/07 02:53:54;;;;;;;;;;;;;;;;;;4973149;28;20379;-76
2023/08/07 02:56:20;;;;;;;;;;;;;;;;;;4974203;28;20271;-77
2023/08/07 02:58:46;;;;;;;;;;;;;;;;;;4963839;28;19928;-77
2023/08/07 03:01:12;;;;;;;;;;;;;;;;;;4954695;29;19926;-77
2023/08/07 03:03:38;;;;;;;;;;;;;;;;;;4959339;28;19922;-78
2023/08/07 03:06:04;;;;;;;;;;;;;;;;;;4974042;28;19922;-76
2023/08/07 03:08:30;;;;;;;;;;;;;;;;;;4973538;28;19929;-77
2023/08/07 03:10:56;;;;;;;;;;;;;;;;;;4964220;28;19939;-77
2023/08/07 03:13:22;;;;;;;;;;;;;;;;;;4954595;28;20009;-77
2023/08/07 03:15:49;;;;;;;;;;;;;;;;;;4953913;29;19926;-77
2023/08/07 03:18:15;;;;;;;;;;;;;;;;;;4959626;28;19922;-77
2023/08/07 03:20:43;;;;;;;;;;;;;;;;;;4973250;28;20041;-77
2023/08/07 03:23:09;;;;;;;;;;;;;;;;;;4973091;28;19941;-77
2023/08/07 03:25:35;;;;;;;;;;;;;;;;;;4959739;28;19930;-77
2023/08/07 03:28:00;;;;;;;;;;;;;;;;;;4952707;29;19926;-77
2023/08/07 03:30:26;;;;;;;;;;;;;;;;;;4953645;29;20028;-77
2023/08/07 03:32:52;;;;;;;;;;;;;;;;;;4955199;28;19922;-78
2023/08/07 03:35:18;;;;;;;;;;;;;;;;;;4971284;28;19922;-77
2023/08/07 03:37:44;;;;;;;;;;;;;;;;;;4972616;28;19972;-77
2023/08/07 03:40:10;;;;;;;;;;;;;;;;;;4959563;28;19922;-77
2023/08/07 03:42:36;;;;;;;;;;;;;;;;;;4953522;29;19922;-77
2023/08/07 03:45:02;;;;;;;;;;;;;;;;;;4970929;28;20194;-77
2023/08/07 03:47:28;;;;;;;;;;;;;;;;;;4957163;28;19922;-77
2023/08/07 03:49:54;;;;;;;;;;;;;;;;;;4972572;28;19922;-77
2023/08/07 03:52:20;;;;;;;;;;;;;;;;;;4963044;28;19922;-77
2023/08/07 03:54:46;;;;;;;;;;;;;;;;;;4952946;29;19922;-77
2023/08/07 03:57:12;;;;;;;;;;;;;;;;;;4970280;28;20418;-77
2023/08/07 03:59:38;;;;;;;;;;;;;;;;;;4969202;28;20383;-77
2023/08/07 04:02:04;;;;;;;;;;;;;;;;;;4953209;29;20415;-76
2023/08/07 04:04:30;;;;;;;;;;;;;;;;;;4961237;28;19961;-77
2023/08/07 04:06:56;;;;;;;;;;;;;;;;;;4972259;28;20039;-77
2023/08/07 04:09:22;;;;;;;;;;;;;;;;;;4969540;28;19926;-77
2023/08/07 04:11:48;;;;;;;;;;;;;;;;;;4936187;29;19930;-77
2023/08/07 04:14:14;;;;;;;;;;;;;;;;;;4952278;29;19973;-76
2023/08/07 04:16:40;;;;;;;;;;;;;;;;;;4953206;29;19929;-76
2023/08/07 04:19:09;;;;;;;;;;;;;;;;;;4952785;29;19933;-76
2023/08/07 04:21:35;;;;;;;;;;;;;;;;;;4953337;29;19926;-77
2023/08/07 04:24:07;;;;;;;;;;;;;;;;;;4964789;28;19973;-77
2023/08/07 04:26:34;;;;;;;;;;;;;;;;;;4967029;28;19994;-77
2023/08/07 04:29:00;;;;;;;;;;;;;;;;;;4968880;28;19926;-76
2023/08/07 04:31:26;;;;;;;;;;;;;;;;;;4972518;28;20481;-76
2023/08/07 04:33:52;;;;;;;;;;;;;;;;;;4972055;28;19969;-77
2023/08/07 04:36:18;;;;;;;;;;;;;;;;;;4972414;28;19922;-76
2023/08/07 04:38:43;;;;;;;;;;;;;;;;;;4971937;28;19969;-77
2023/08/07 04:41:10;;;;;;;;;;;;;;;;;;4955804;28;19926;-77
2023/08/07 04:43:36;;;;;;;;;;;;;;;;;;4970940;28;20308;-76
2023/08/07 04:46:02;;;;;;;;;;;;;;;;;;4955960;28;19922;-77
2023/08/07 04:48:28;;;;;;;;;;;;;;;;;;4972473;28;19922;-76
2023/08/07 04:50:54;;;;;;;;;;;;;;;;;;4971808;28;19926;-77
2023/08/07 04:53:20;;;;;;;;;;;;;;;;;;4971193;28;19922;-77
2023/08/07 04:55:46;;;;;;;;;;;;;;;;;;4954642;28;20072;-77
2023/08/07 04:58:12;;;;;;;;;;;;;;;;;;4951118;29;20044;-77
2023/08/07 05:00:38;;;;;;;;;;;;;;;;;;4937066;29;20390;-77
2023/08/07 05:03:04;;;;;;;;;;;;;;;;;;4961756;28;20639;-76
2023/08/07 05:05:30;;;;;;;;;;;;;;;;;;4972096;28;19992;-76
2023/08/07 05:07:56;;;;;;;;;;;;;;;;;;4958308;28;19929;-76
2023/08/07 05:10:22;;;;;;;;;;;;;;;;;;4936540;29;20580;-77
2023/08/07 05:12:48;;;;;;;;;;;;;;;;;;4951973;29;19926;-76
2023/08/07 05:15:14;;;;;;;;;;;;;;;;;;4935554;29;19929;-77
2023/08/07 05:17:40;;;;;;;;;;;;;;;;;;4952900;29;19923;-76
2023/08/07 05:20:06;;;;;;;;;;;;;;;;;;4952133;28;19922;-77
2023/08/07 05:22:32;;;;;;;;;;;;;;;;;;4964894;28;19929;-76
2023/08/07 05:24:58;;;;;;;;;;;;;;;;;;4956563;28;19922;-77
2023/08/07 05:27:24;;;;;;;;;;;;;;;;;;4966707;28;19988;-76
2023/08/07 05:29:50;;;;;;;;;;;;;;;;;;4974841;28;19925;-76
2023/08/07 05:32:16;;;;;;;;;;;;;;;;;;4975259;28;19922;-77
2023/08/07 05:34:42;;;;;;;;;;;;;;;;;;4975494;28;20376;-76
2023/08/07 05:37:08;;;;;;;;;;;;;;;;;;4944107;29;19989;-77
2023/08/07 05:39:34;;;;;;;;;;;;;;;;;;4955317;29;19929;-77
2023/08/07 05:42:00;;;;;;;;;;;;;;;;;;4958547;28;20334;-76
2023/08/07 05:44:26;;;;;;;;;;;;;;;;;;4971642;28;20033;-77
2023/08/07 05:46:52;;;;;;;;;;;;;;;;;;4944417;29;19926;-77
2023/08/07 05:49:17;;;;;;;;;;;;;;;;;;4955586;29;19922;-77
2023/08/07 05:51:43;;;;;;;;;;;;;;;;;;4956948;28;19922;-77
2023/08/07 05:54:09;;;;;;;;;;;;;;;;;;4939981;28;20020;-77
2023/08/07 05:56:35;;;;;;;;;;;;;;;;;;4958681;28;19994;-77
2023/08/07 05:59:01;;;;;;;;;;;;;;;;;;4973765;28;20352;-77
2023/08/07 06:01:30;;;;;;;;;;;;;;;;;;4974649;28;20399;-77
2023/08/07 06:03:56;;;;;;;;;;;;;;;;;;4973682;28;19922;-78
2023/08/07 06:06:23;;;;;;;;;;;;;;;;;;4972913;28;19929;-77
2023/08/07 06:08:48;;;;;;;;;;;;;;;;;;4974058;28;19922;-77
2023/08/07 06:11:14;;;;;;;;;;;;;;;;;;4973511;28;19982;-77
2023/08/07 06:13:40;;;;;;;;;;;;;;;;;;4973610;28;19922;-77
2023/08/07 06:16:06;;;;;;;;;;;;;;;;;;4974240;28;19949;-77
2023/08/07 06:18:32;;;;;;;;;;;;;;;;;;4962718;28;20348;-77
2023/08/07 06:20:59;;;;;;;;;;;;;;;;;;4955027;29;19922;-77
2023/08/07 06:23:25;;;;;;;;;;;;;;;;;;4973785;28;20402;-77
2023/08/07 06:25:51;;;;;;;;;;;;;;;;;;4974763;28;19929;-77
2023/08/07 06:28:17;;;;;;;;;;;;;;;;;;4956577;28;19949;-77
2023/08/07 06:30:43;;;;;;;;;;;;;;;;;;4973240;28;19926;-77
2023/08/07 06:33:09;;;;;;;;;;;;;;;;;;4973681;28;20391;-77
2023/08/07 06:35:35;;;;;;;;;;;;;;;;;;4972887;28;19926;-77
2023/08/07 06:38:01;;;;;;;;;;;;;;;;;;4973171;28;19922;-78
2023/08/07 06:40:27;;;;;;;;;;;;;;;;;;4973378;28;19957;-77
2023/08/07 06:42:54;;;;;;;;;;;;;;;;;;4973393;28;19929;-75
2023/08/07 06:45:20;;;;;;;;;;;;;;;;;;4972550;28;19953;-75
2023/08/07 06:47:46;;;;;;;;;;;;;;;;;;4971596;28;20009;-78
2023/08/07 06:50:12;;;;;;;;;;;;;;;;;;4968943;28;19937;-77
2023/08/07 06:52:38;;;;;;;;;;;;;;;;;;4944859;28;20031;-76
2023/08/07 06:55:04;;;;;;;;;;;;;;;;;;4969422;28;20367;-76
2023/08/07 06:57:29;;;;;;;;;;;;;;;;;;4969195;28;20276;-75
2023/08/07 06:59:55;;;;;;;;;;;;;;;;;;4972494;28;19926;-75
2023/08/07 07:02:21;;;;;;;;;;;;;;;;;;4969579;28;19930;-75
2023/08/07 07:04:47;;;;;;;;;;;;;;;;;;4958434;28;19994;-75
2023/08/07 07:07:13;;;;;;;;;;;;;;;;;;4973321;28;19926;-75
2023/08/07 07:09:39;;;;;;;;;;;;;;;;;;4973239;28;19961;-75
2023/08/07 07:12:05;;;;;;;;;;;;;;;;;;4972529;28;20012;-77
2023/08/07 07:14:31;;;;;;;;;;;;;;;;;;4972929;28;20414;-75
2023/08/07 07:16:57;;;;;;;;;;;;;;;;;;4957603;28;20372;-75
2023/08/07 07:19:23;;;;;;;;;;;;;;;;;;4962025;28;19922;-75
2023/08/07 07:21:49;;;;;;;;;;;;;;;;;;4944646;28;19922;-75
2023/08/07 07:24:15;;;;;;;;;;;;;;;;;;4972079;28;19973;-75
2023/08/07 07:26:41;;;;;;;;;;;;;;;;;;4973083;28;19977;-75
2023/08/07 07:29:07;;;;;;;;;;;;;;;;;;4971477;28;19930;-77
2023/08/07 07:31:33;;;;;;;;;;;;;;;;;;4972336;28;19929;-75
2023/08/07 07:33:59;;;;;;;;;;;;;;;;;;4974162;28;19922;-70
2023/08/07 07:36:25;;;;;;;;;;;;;;;;;;4973620;28;19984;-70
2023/08/07 07:38:51;;;;;;;;;;;;;;;;;;4973457;28;19922;-69
2023/08/07 07:41:18;;;;;;;;;;;;;;;;;;4967401;28;19976;-73
2023/08/07 07:43:44;;;;;;;;;;;;;;;;;;4964094;28;19976;-77
2023/08/07 07:46:10;;;;;;;;;;;;;;;;;;4936980;29;19922;-78
2023/08/07 07:48:36;;;;;;;;;;;;;;;;;;4963008;28;19929;-76
2023/08/07 07:51:02;;;;;;;;;;;;;;;;;;4973026;28;19922;-77
2023/08/07 07:53:28;;;;;;;;;;;;;;;;;;4965360;28;19929;-78
2023/08/07 07:55:54;;;;;;;;;;;;;;;;;;4963327;28;19926;-77
2023/08/07 07:58:20;;;;;;;;;;;;;;;;;;4950482;28;19922;-78
2023/08/07 08:00:46;;;;;;;;;;;;;;;;;;4957713;28;19949;-78
2023/08/07 08:03:12;;;;;;;;;;;;;;;;;;4964821;28;20363;-78
2023/08/07 08:05:38;;;;;;;;;;;;;;;;;;4940852;29;20390;-78
2023/08/07 08:08:04;;;;;;;;;;;;;;;;;;4955727;28;19937;-78
2023/08/07 08:10:30;;;;;;;;;;;;;;;;;;4955371;28;19969;-78
2023/08/07 08:12:55;;;;;;;;;;;;;;;;;;4950574;29;19929;-78
2023/08/07 08:15:21;;;;;;;;;;;;;;;;;;4961343;28;19925;-74
2023/08/07 08:17:47;;;;;;;;;;;;;;;;;;4958169;28;19929;-77
2023/08/07 08:20:18;;;;;;;;;;;;;;;;;;4965094;28;20291;-78
2023/08/07 08:22:44;;;;;;;;;;;;;;;;;;4948191;28;19929;-78
2023/08/07 08:25:11;;;;;;;;;;;;;;;;;;4967375;28;19922;-77
2023/08/07 08:27:37;;;;;;;;;;;;;;;;;;4946251;28;19922;-75
2023/08/07 08:30:03;;;;;;;;;;;;;;;;;;4967457;28;20005;-75
2023/08/07 08:32:29;;;;;;;;;;;;;;;;;;4971844;28;19922;-74
2023/08/07 08:34:55;;;;;;;;;;;;;;;;;;4951000;28;20264;-76
2023/08/07 08:37:21;;;;;;;;;;;;;;;;;;4971557;28;19929;-76
2023/08/07 08:39:47;;;;;;;;;;;;;;;;;;4971739;28;19938;-76
2023/08/07 08:42:13;;;;;;;;;;;;;;;;;;4971497;28;20009;-81
2023/08/07 08:44:39;;;;;;;;;;;;;;;;;;4970571;28;19926;-75
2023/08/07 08:47:05;;;;;;;;;;;;;;;;;;4970186;28;19976;-76
2023/08/07 08:49:31;;;;;;;;;;;;;;;;;;4955074;28;19926;-77
2023/08/07 08:51:58;;;;;;;;;;;;;;;;;;4949545;28;19929;-80
2023/08/07 08:54:25;;;;;;;;;;;;;;;;;;4943169;29;19922;-77
2023/08/07 08:56:51;;;;;;;;;;;;;;;;;;4967590;28;19926;-77
2023/08/07 08:59:18;;;;;;;;;;;;;;;;;;4974366;28;20044;-74
2023/08/07 09:01:44;;;;;;;;;;;;;;;;;;4975883;28;19929;-73
2023/08/07 09:04:10;;;;;;;;;;;;;;;;;;4975268;28;20271;-80
2023/08/07 09:06:36;;;;;;;;;;;;;;;;;;4956480;28;19977;-86
2023/08/07 09:09:02;;;;;;;;;;;;;;;;;;4975995;28;19921;-78
2023/08/07 09:11:28;;;;;;;;;;;;;;;;;;4953592;28;19921;-87
2023/08/07 09:13:55;;;;;;;;;;;;;;;;;;4943410;29;19926;-80
2023/08/07 09:16:22;;;;;;;;;;;;;;;;;;4953480;28;19926;-76
2023/08/07 09:18:50;;;;;;;;;;;;;;;;;;4969242;28;19930;-77
2023/08/07 09:21:16;;;;;;;;;;;;;;;;;;4951781;29;19949;-78
2023/08/07 09:23:42;;;;;;;;;;;;;;;;;;4973785;28;19929;-75
2023/08/07 09:26:08;;;;;;;;;;;;;;;;;;4965951;28;19922;-79
2023/08/07 09:28:34;;;;;;;;;;;;;;;;;;4947328;28;19977;-77
2023/08/07 09:31:01;;;;;;;;;;;;;;;;;;4962783;28;19968;-81
2023/08/07 09:33:27;;;;;;;;;;;;;;;;;;4971600;28;19969;-80
2023/08/07 09:35:53;;;;;;;;;;;;;;;;;;4959054;28;20423;-82
2023/08/07 09:38:19;;;;;;;;;;;;;;;;;;4967460;28;19922;-79
2023/08/07 09:40:45;;;;;;;;;;;;;;;;;;4964125;28;19997;-83
2023/08/07 09:43:11;;;;;;;;;;;;;;;;;;4959183;28;19953;-83
2023/08/07 09:45:37;;;;;;;;;;;;;;;;;;4972794;28;19922;-85
2023/08/07 09:48:03;;;;;;;;;;;;;;;;;;4946904;29;20014;-82
2023/08/07 09:50:29;;;;;;;;;;;;;;;;;;4957253;28;20375;-79
2023/08/07 09:52:55;;;;;;;;;;;;;;;;;;4966515;28;20383;-78
2023/08/07 09:55:21;;;;;;;;;;;;;;;;;;4959338;28;19922;-81
2023/08/07 09:57:47;;;;;;;;;;;;;;;;;;4967362;28;19945;-74
2023/08/07 10:00:15;;;;;;;;;;;;;;;;;;4962437;28;19922;-75
2023/08/07 10:02:41;;;;;;;;;;;;;;;;;;4973989;28;19957;-79
2023/08/07 10:05:08;;;;;;;;;;;;;;;;;;4968732;28;20303;-81
2023/08/07 10:07:34;;;;;;;;;;;;;;;;;;4943229;28;19923;-79
2023/08/07 10:10:00;;;;;;;;;;;;;;;;;;4964409;28;19928;-79
2023/08/07 10:12:26;;;;;;;;;;;;;;;;;;4967197;28;19922;-85
2023/08/07 10:14:52;;;;;;;;;;;;;;;;;;4953537;28;19929;-81
2023/08/07 10:17:18;;;;;;;;;;;;;;;;;;4949339;28;20037;-76
2023/08/07 10:19:44;;;;;;;;;;;;;;;;;;4968321;28;20656;-76
2023/08/07 10:22:10;;;;;;;;;;;;;;;;;;4968237;28;19922;-76
2023/08/07 10:24:36;;;;;;;;;;;;;;;;;;4953907;29;19933;-75
2023/08/07 10:27:02;;;;;;;;;;;;;;;;;;4967592;28;20422;-77
2023/08/07 10:29:28;;;;;;;;;;;;;;;;;;4970068;28;20016;-83
2023/08/07 10:31:54;;;;;;;;;;;;;;;;;;4967885;28;19973;-78
2023/08/07 10:34:19;;;;;;;;;;;;;;;;;;4964108;28;19922;-77
2023/08/07 10:36:45;;;;;;;;;;;;;;;;;;4961953;28;19937;-81
2023/08/07 10:39:11;;;;;;;;;;;;;;;;;;4949173;29;19974;-84
2023/08/07 10:41:37;;;;;;;;;;;;;;;;;;4970996;28;20025;-85
2023/08/07 10:44:03;;;;;;;;;;;;;;;;;;4969610;28;20017;-83
2023/08/07 10:46:29;;;;;;;;;;;;;;;;;;4954702;29;20398;-84
2023/08/07 10:48:59;;;;;;;;;;;;;;;;;;4954873;29;20013;-73
2023/08/07 10:51:25;;;;;;;;;;;;;;;;;;4944812;28;19933;-76
2023/08/07 10:53:52;;;;;;;;;;;;;;;;;;4968157;28;19926;-78
2023/08/07 10:56:18;;;;;;;;;;;;;;;;;;4966257;28;19921;-76
2023/08/07 10:58:44;;;;;;;;;;;;;;;;;;4943334;28;19922;-77
2023/08/07 11:01:10;;;;;;;;;;;;;;;;;;4965867;28;19932;-77
2023/08/07 11:03:36;;;;;;;;;;;;;;;;;;4960154;28;19972;-77
2023/08/07 11:06:02;;;;;;;;;;;;;;;;;;4976662;28;19958;-77
2023/08/07 11:08:28;;;;;;;;;;;;;;;;;;4969859;28;19965;-77
2023/08/07 11:10:54;;;;;;;;;;;;;;;;;;4972408;28;19933;-77
2023/08/07 11:13:20;;;;;;;;;;;;;;;;;;4970935;28;19949;-77
2023/08/07 11:15:47;;;;;;;;;;;;;;;;;;4966855;28;19930;-77
2023/08/07 11:18:13;;;;;;;;;;;;;;;;;;4958895;28;19926;-77
2023/08/07 11:20:39;;;;;;;;;;;;;;;;;;4972088;28;19945;-77
2023/08/07 11:23:05;;;;;;;;;;;;;;;;;;4961311;28;20488;-77
2023/08/07 11:25:31;;;;;;;;;;;;;;;;;;4972884;28;19928;-73
2023/08/07 11:27:57;;;;;;;;;;;;;;;;;;4958902;28;20017;-76
2023/08/07 11:30:23;;;;;;;;;;;;;;;;;;4972770;28;19922;-77
2023/08/07 11:32:49;;;;;;;;;;;;;;;;;;4972426;28;19925;-76
2023/08/07 11:35:15;;;;;;;;;;;;;;;;;;4972846;28;19988;-72
2023/08/07 11:37:41;;;;;;;;;;;;;;;;;;4970015;28;20008;-78
2023/08/07 11:40:07;;;;;;;;;;;;;;;;;;4968581;28;19937;-77
2023/08/07 11:42:33;;;;;;;;;;;;;;;;;;4970783;28;19976;-84
2023/08/07 11:44:58;;;;;;;;;;;;;;;;;;4971371;28;20391;-83
2023/08/07 11:47:24;;;;;;;;;;;;;;;;;;4957101;28;19997;-79
2023/08/07 11:49:50;;;;;;;;;;;;;;;;;;4956281;28;19929;-77
2023/08/07 11:52:16;;;;;;;;;;;;;;;;;;4960121;28;20376;-76
2023/08/07 11:54:43;;;;;;;;;;;;;;;;;;4955271;28;20287;-72
2023/08/07 11:57:08;;;;;;;;;;;;;;;;;;4970797;28;20253;-76
2023/08/07 11:59:34;;;;;;;;;;;;;;;;;;4971431;28;19937;-76
2023/08/07 12:02:00;;;;;;;;;;;;;;;;;;4965638;28;19931;-72
2023/08/07 12:04:27;;;;;;;;;;;;;;;;;;4973171;28;19986;-73
2023/08/07 12:06:53;;;;;;;;;;;;;;;;;;4961881;28;19923;-77
2023/08/07 12:09:19;;;;;;;;;;;;;;;;;;4966742;28;20265;-76
2023/08/07 12:11:45;;;;;;;;;;;;;;;;;;4971227;28;19929;-77
2023/08/07 12:14:11;;;;;;;;;;;;;;;;;;4971672;28;20367;-77
2023/08/07 12:16:37;;;;;;;;;;;;;;;;;;4972328;28;19929;-82
2023/08/07 12:19:03;;;;;;;;;;;;;;;;;;4970203;28;20298;-77
2023/08/07 12:21:32;;;;;;;;;;;;;;;;;;4957663;28;19969;-77
2023/08/07 12:23:58;;;;;;;;;;;;;;;;;;4971756;28;20359;-77
2023/08/07 12:26:24;;;;;;;;;;;;;;;;;;4971224;28;19929;-77
2023/08/07 12:28:50;;;;;;;;;;;;;;;;;;4935611;29;19949;-76
2023/08/07 12:31:17;;;;;;;;;;;;;;;;;;4954330;28;19929;-76
2023/08/07 12:33:43;;;;;;;;;;;;;;;;;;4952850;29;19929;-77
2023/08/07 12:36:10;;;;;;;;;;;;;;;;;;4953465;29;20324;-76
2023/08/07 12:38:36;;;;;;;;;;;;;;;;;;4953100;29;19923;-76
2023/08/07 12:41:03;;;;;;;;;;;;;;;;;;4952492;29;19922;-76
2023/08/07 12:43:29;;;;;;;;;;;;;;;;;;4965419;28;19932;-77
2023/08/07 12:45:55;;;;;;;;;;;;;;;;;;4959043;28;20279;-76
2023/08/07 12:48:21;;;;;;;;;;;;;;;;;;4953243;29;19977;-76
2023/08/07 12:50:47;;;;;;;;;;;;;;;;;;4943812;29;19926;-76
2023/08/07 12:53:13;;;;;;;;;;;;;;;;;;4950418;28;19949;-77
2023/08/07 12:55:39;;;;;;;;;;;;;;;;;;4969545;28;19922;-76
2023/08/07 12:58:05;;;;;;;;;;;;;;;;;;4949217;29;19980;-76
2023/08/07 13:00:31;;;;;;;;;;;;;;;;;;4952472;29;20335;-76
2023/08/07 13:02:58;;;;;;;;;;;;;;;;;;4952280;29;19922;-78
2023/08/07 13:05:24;;;;;;;;;;;;;;;;;;4936815;29;20029;-76
2023/08/07 13:07:53;;;;;;;;;;;;;;;;;;4970959;28;19973;-77
2023/08/07 13:10:19;;;;;;;;;;;;;;;;;;4968534;28;19922;-77
2023/08/07 13:12:45;;;;;;;;;;;;;;;;;;4953090;29;19933;-83
2023/08/07 13:15:12;;;;;;;;;;;;;;;;;;4952057;29;19928;-78
2023/08/07 13:17:38;;;;;;;;;;;;;;;;;;4953147;29;19922;-77
2023/08/07 13:20:07;;;;;;;;;;;;;;;;;;4952211;29;19929;-76
2023/08/07 13:22:33;;;;;;;;;;;;;;;;;;4971067;28;19929;-74
2023/08/07 13:24:59;;;;;;;;;;;;;;;;;;4972075;28;19922;-73
2023/08/07 13:27:25;;;;;;;;;;;;;;;;;;4951648;29;19933;-72
2023/08/07 13:29:51;;;;;;;;;;;;;;;;;;4962494;28;19977;-78
2023/08/07 13:32:20;;;;;;;;;;;;;;;;;;4969956;28;19922;-73
2023/08/07 13:34:46;;;;;;;;;;;;;;;;;;4972751;28;19926;-72
2023/08/07 13:37:12;;;;;;;;;;;;;;;;;;4969509;28;20025;-72
2023/08/07 13:39:38;;;;;;;;;;;;;;;;;;4971062;28;19926;-72
2023/08/07 13:42:04;;;;;;;;;;;;;;;;;;4969462;28;19922;-73
2023/08/07 13:44:30;;;;;;;;;;;;;;;;;;4973918;28;19969;-73
2023/08/07 13:46:55;;;;;;;;;;;;;;;;;;4973181;28;19926;-72
2023/08/07 13:49:22;;;;;;;;;;;;;;;;;;4974612;28;19972;-72
2023/08/07 13:51:48;;;;;;;;;;;;;;;;;;4974798;28;19922;-72
2023/08/07 13:54:14;;;;;;;;;;;;;;;;;;4972994;28;19949;-72
2023/08/07 13:56:40;;;;;;;;;;;;;;;;;;4955458;28;19972;-73
2023/08/07 13:59:05;;;;;;;;;;;;;;;;;;4971677;28;19926;-73
2023/08/07 14:01:33;;;;;;;;;;;;;;;;;;4971765;28;19929;-72
2023/08/07 14:03:59;;;;;;;;;;;;;;;;;;4971803;28;19937;-73
2023/08/07 14:06:25;;;;;;;;;;;;;;;;;;4974195;28;19925;-73
2023/08/07 14:08:51;;;;;;;;;;;;;;;;;;4973794;28;19926;-73
2023/08/07 14:11:16;;;;;;;;;;;;;;;;;;4973799;28;20401;-75
2023/08/07 14:13:44;;;;;;;;;;;;;;;;;;4971124;28;19928;-73
2023/08/07 14:16:10;;;;;;;;;;;;;;;;;;4973200;28;19922;-73
2023/08/07 14:18:36;;;;;;;;;;;;;;;;;;4972929;28;20405;-74
2023/08/07 14:21:02;;;;;;;;;;;;;;;;;;4973113;28;20268;-75
2023/08/07 14:23:27;;;;;;;;;;;;;;;;;;4973386;28;19925;-72
2023/08/07 14:25:53;;;;;;;;;;;;;;;;;;4973544;28;19930;-72
2023/08/07 14:28:19;;;;;;;;;;;;;;;;;;4972878;28;20020;-72
2023/08/07 14:30:45;;;;;;;;;;;;;;;;;;4974197;28;20036;-71
2023/08/07 14:33:11;;;;;;;;;;;;;;;;;;4972667;28;19977;-71
2023/08/07 14:35:37;;;;;;;;;;;;;;;;;;4971682;28;20375;-71
2023/08/07 14:38:03;;;;;;;;;;;;;;;;;;4974044;28;19937;-72
2023/08/07 14:40:30;;;;;;;;;;;;;;;;;;4975017;28;19949;-72
2023/08/07 14:42:56;;;;;;;;;;;;;;;;;;4973800;28;19961;-81
2023/08/07 14:45:23;;;;;;;;;;;;;;;;;;4971836;28;19926;-75
2023/08/07 14:47:49;;;;;;;;;;;;;;;;;;4973375;28;19926;-75
2023/08/07 14:50:16;;;;;;;;;;;;;;;;;;4973795;28;19926;-76
2023/08/07 14:52:41;;;;;;;;;;;;;;;;;;4958040;28;19921;-71
2023/08/07 14:55:07;;;;;;;;;;;;;;;;;;4973287;28;19929;-72
2023/08/07 14:57:33;;;;;;;;;;;;;;;;;;4973696;28;20017;-71
2023/08/07 14:59:59;;;;;;;;;;;;;;;;;;4971153;28;19998;-76
2023/08/07 15:02:25;;;;;;;;;;;;;;;;;;4973923;28;19926;-71
2023/08/07 15:04:51;;;;;;;;;;;;;;;;;;4955752;28;19922;-71
2023/08/07 15:07:17;;;;;;;;;;;;;;;;;;4961532;28;19922;-76
2023/08/07 15:09:43;;;;;;;;;;;;;;;;;;4973813;28;20303;-74
2023/08/07 15:12:09;;;;;;;;;;;;;;;;;;4970025;28;19976;-75
2023/08/07 15:14:35;;;;;;;;;;;;;;;;;;4970925;28;20032;-73
2023/08/07 15:17:01;;;;;;;;;;;;;;;;;;4973225;28;19929;-78
2023/08/07 15:19:27;;;;;;;;;;;;;;;;;;4972915;28;19922;-74
2023/08/07 15:21:53;;;;;;;;;;;;;;;;;;4964651;28;20642;-74
2023/08/07 15:24:19;;;;;;;;;;;;;;;;;;4971823;28;20382;-72
2023/08/07 15:26:46;;;;;;;;;;;;;;;;;;4973547;28;19937;-73
2023/08/07 15:29:12;;;;;;;;;;;;;;;;;;4963920;28;19929;-75
2023/08/07 15:31:38;;;;;;;;;;;;;;;;;;4969670;28;19925;-73
2023/08/07 15:34:04;;;;;;;;;;;;;;;;;;4972067;28;19932;-79
2023/08/07 15:36:30;;;;;;;;;;;;;;;;;;4973086;28;19965;-75
2023/08/07 15:38:56;;;;;;;;;;;;;;;;;;4972866;28;19926;-74
2023/08/07 15:41:22;;;;;;;;;;;;;;;;;;4967863;28;19933;-74
2023/08/07 15:43:51;;;;;;;;;;;;;;;;;;4970493;28;19922;-73
2023/08/07 15:46:17;;;;;;;;;;;;;;;;;;4963211;28;19922;-76
2023/08/07 15:48:43;;;;;;;;;;;;;;;;;;4945701;29;19929;-76
2023/08/07 15:51:09;;;;;;;;;;;;;;;;;;4969113;28;19926;-77
2023/08/07 15:53:40;;;;;;;;;;;;;;;;;;4967164;28;19922;-75
2023/08/07 15:56:06;;;;;;;;;;;;;;;;;;4950207;28;19926;-77
2023/08/07 15:58:32;;;;;;;;;;;;;;;;;;4946329;28;19978;-76
2023/08/07 16:00:58;;;;;;;;;;;;;;;;;;4972493;28;19973;-75
2023/08/07 16:03:24;;;;;;;;;;;;;;;;;;4971555;28;19958;-78
2023/08/07 16:05:50;;;;;;;;;;;;;;;;;;4971086;28;19922;-75
2023/08/07 16:08:16;;;;;;;;;;;;;;;;;;4955457;28;19929;-75
2023/08/07 16:10:42;;;;;;;;;;;;;;;;;;4940852;29;19923;-75
2023/08/07 16:13:08;;;;;;;;;;;;;;;;;;4963132;28;20578;-79
2023/08/07 16:15:34;;;;;;;;;;;;;;;;;;4972023;28;20057;-71
2023/08/07 16:18:01;;;;;;;;;;;;;;;;;;4971783;28;19926;-73
2023/08/07 16:20:27;;;;;;;;;;;;;;;;;;4971888;28;19922;-74
2023/08/07 16:22:53;;;;;;;;;;;;;;;;;;4972106;28;19976;-74
2023/08/07 16:25:19;;;;;;;;;;;;;;;;;;4971422;28;19922;-74
2023/08/07 16:27:45;;;;;;;;;;;;;;;;;;4970807;28;19922;-76
2023/08/07 16:30:11;;;;;;;;;;;;;;;;;;4958494;28;19972;-75
2023/08/07 16:32:37;;;;;;;;;;;;;;;;;;4960450;28;19929;-75
2023/08/07 16:35:03;;;;;;;;;;;;;;;;;;4964610;28;19929;-74
2023/08/07 16:37:29;;;;;;;;;;;;;;;;;;4971741;28;20426;-71